»·PEaware :: N530RC L88-KSBP

N530RC :: L88-KSBP

FLIGHT INFORMATION

Flight Status: Arrived
Operator: Privately registered:
United States
More flights under this callsign
Pilot: Louis L. (20588)
Aircraft: CESSNA 152 AEROBAT
(C152)
More flights by this aircraft type
Origin: L88 New Cuyama
United States
Destination: KSBP San Luis Co Regl
United States
More flights between these airports :: More routes between these airports
Route: L88 KSBP
File this flight plan on PilotEdge
Remarks:
Altitude:
(Current/Filed)
8,500ft
Speed:
(Current/Filed)
85kts
Departed: 09-Oct-18 09:21 AM
Arrived: 09-Oct-18 10:20 AM
Distance/Time
Traveled:
50nm/0:59
Distance/Time
To Go:
Arrived

Flight Plot

Page will automatically refresh every two minutes.


Map Options




Map Legend


Flown Route
Filed Route
Departure Airport
Arrival Airport
Navaid (VOR, NDB)
Fix

Horizontal Profiles

Position Reports

Time Latitude Longitude Heading Altitude Ground
Speed
09-Oct-18 09:17 34.942855 -119.690286 204 2155ft 0kts
09-Oct-18 09:18 34.942855 -119.690286 204 2155ft 0kts
09-Oct-18 09:19 34.942855 -119.690286 204 2155ft 0kts
09-Oct-18 09:20 34.942754 -119.691112 227 2154ft 1kts
09-Oct-18 09:21 34.940794 -119.687647 115 2166ft 35kts
09-Oct-18 09:22 34.938924 -119.682204 242 2189ft 5kts
09-Oct-18 09:23 34.939608 -119.684706 295 2180ft 57kts
09-Oct-18 09:24 34.944775 -119.694340 314 2632ft 61kts
09-Oct-18 09:25 34.950820 -119.702367 301 3094ft 65kts
09-Oct-18 09:26 34.956208 -119.711770 302 3566ft 64kts
09-Oct-18 09:27 34.961636 -119.720681 313 4006ft 64kts
09-Oct-18 09:28 34.966988 -119.729156 316 4450ft 61kts
09-Oct-18 09:29 34.972958 -119.736679 313 4888ft 58kts
09-Oct-18 09:30 34.976195 -119.747380 293 5237ft 68kts
09-Oct-18 09:31 34.980468 -119.758205 274 5624ft 71kts
09-Oct-18 09:32 34.982487 -119.770014 284 6039ft 68kts
09-Oct-18 09:33 34.983546 -119.782205 275 6409ft 73kts
09-Oct-18 09:34 34.986101 -119.794003 305 6790ft 70kts
09-Oct-18 09:35 34.991945 -119.806831 301 6961ft 94kts
09-Oct-18 09:36 34.999708 -119.826435 295 6951ft 110kts
09-Oct-18 09:37 35.005594 -119.841410 303 6911ft 113kts
09-Oct-18 09:38 35.014071 -119.859539 302 6724ft 117kts
09-Oct-18 09:39 35.022346 -119.877063 302 6523ft 120kts
09-Oct-18 09:40 35.030858 -119.895566 301 6442ft 113kts
09-Oct-18 09:41 35.037502 -119.909739 304 6451ft 111kts
09-Oct-18 09:42 35.044239 -119.922424 304 6460ft 110kts
09-Oct-18 09:43 35.052553 -119.939397 303 6472ft 113kts
09-Oct-18 09:44 35.059875 -119.957255 302 6543ft 109kts
09-Oct-18 09:45 35.068055 -119.974216 303 6565ft 111kts
09-Oct-18 09:46 35.076577 -119.990916 306 6500ft 113kts
09-Oct-18 09:47 35.085380 -120.006924 308 6447ft 115kts
09-Oct-18 09:48 35.094441 -120.022993 307 6392ft 114kts
09-Oct-18 09:49 35.101261 -120.037938 293 6440ft 115kts
09-Oct-18 09:50 35.106055 -120.053502 291 6481ft 116kts
09-Oct-18 09:51 35.110626 -120.070277 291 6536ft 118kts
09-Oct-18 09:52 35.115506 -120.088436 293 6453ft 120kts
09-Oct-18 09:53 35.120577 -120.105904 293 6463ft 118kts
09-Oct-18 09:54 35.126007 -120.122754 293 6504ft 117kts
09-Oct-18 09:55 35.129702 -120.140964 289 6381ft 123kts
09-Oct-18 09:56 35.133701 -120.158426 288 6357ft 121kts
09-Oct-18 09:57 35.136873 -120.176043 285 6340ft 119kts
09-Oct-18 09:58 35.138906 -120.193906 278 6344ft 120kts
09-Oct-18 09:59 35.140641 -120.207861 285 6196ft 116kts
09-Oct-18 10:00 35.142660 -120.224351 282 6265ft 102kts
09-Oct-18 10:01 35.144741 -120.244482 270 6072ft 121kts
09-Oct-18 10:02 35.139909 -120.268811 259 6133ft 118kts
09-Oct-18 10:03 35.138113 -120.285322 269 6331ft 110kts
09-Oct-18 10:04 35.135873 -120.305397 262 6459ft 116kts
09-Oct-18 10:05 35.134496 -120.325760 277 6441ft 121kts
09-Oct-18 10:06 35.136028 -120.346631 280 6431ft 120kts
09-Oct-18 10:07 35.138522 -120.366661 284 6520ft 115kts
09-Oct-18 10:08 35.141769 -120.386733 283 6485ft 119kts
09-Oct-18 10:09 35.145040 -120.406811 283 6219ft 109kts
09-Oct-18 10:10 35.147972 -120.426000 284 5525ft 112kts
09-Oct-18 10:11 35.152074 -120.445409 290 5088ft 109kts
09-Oct-18 10:12 35.157881 -120.464476 293 4698ft 109kts
09-Oct-18 10:13 35.164431 -120.483123 294 4221ft 117kts
09-Oct-18 10:14 35.172653 -120.503278 300 3178ft 116kts
09-Oct-18 10:15 35.181482 -120.521657 301 2366ft 116kts
09-Oct-18 10:16 35.190996 -120.541589 303 2189ft 126kts
09-Oct-18 10:17 35.202197 -120.562094 305 1786ft 133kts
09-Oct-18 10:18 35.208402 -120.586047 289 1426ft 126kts
09-Oct-18 10:19 35.217224 -120.607075 305 1091ft 117kts
09-Oct-18 10:20 35.225960 -120.621443 307 744ft 63kts
09-Oct-18 10:21 35.231261 -120.630394 307 362ft 58kts
09-Oct-18 10:22 35.235321 -120.637188 307 201ft 16kts
09-Oct-18 10:23 35.237471 -120.639871 3 190ft 0kts
09-Oct-18 10:24 35.237588 -120.639187 88 193ft 1kts

Navigation Log

Ident Type
1. L88 Airport
2. KSBP Airport